Time;durP1;ratioP1;P1;durP2;ratioP2;P2;SDS_P1;SDS_P2;PMS_P1;PMS_P2;Temp;Humidity;BMP_temperature;BMP_pressure;BME280_temperature;BME280_humidity;BME280_pressure;Samples;Min_cycle;Max_cycle;Signal;HPM_P1;HPM_P2
2023/08/01 00:00:11;;;;;;;5.85;2.78;;;20.70;99.90;;;;;;5051244;28;20623;-57
2023/08/01 00:02:39;;;;;;;3.78;2.58;;;20.60;99.90;;;;;;5050912;28;20226;-58
2023/08/01 00:05:06;;;;;;;5.22;2.60;;;20.60;99.90;;;;;;5051617;28;20240;-56
2023/08/01 00:07:32;;;;;;;3.67;2.30;;;20.70;99.90;;;;;;5054389;28;20220;-57
2023/08/01 00:09:59;;;;;;;5.38;2.70;;;20.60;99.90;;;;;;5054573;28;20578;-56
2023/08/01 00:12:26;;;;;;;5.30;2.67;;;20.60;99.90;;;;;;5054323;28;20363;-56
2023/08/01 00:14:52;;;;;;;5.72;2.92;;;20.70;99.90;;;;;;5054597;28;20210;-57
2023/08/01 00:17:20;;;;;;;6.70;3.20;;;20.60;99.90;;;;;;5054346;28;20205;-56
2023/08/01 00:19:47;;;;;;;4.70;3.00;;;20.70;99.90;;;;;;5054638;28;20637;-57
2023/08/01 00:22:14;;;;;;;4.88;3.10;;;20.60;99.90;;;;;;5054315;28;20308;-57
2023/08/01 00:24:41;;;;;;;5.28;2.97;;;20.60;99.90;;;;;;5054165;28;20241;-57
2023/08/01 00:27:10;;;;;;;4.45;2.47;;;20.60;99.90;;;;;;5054046;28;20688;-56
2023/08/01 00:29:37;;;;;;;6.07;3.00;;;20.60;99.90;;;;;;5054697;28;20399;-57
2023/08/01 00:32:04;;;;;;;5.10;2.95;;;20.60;99.90;;;;;;5078275;22;20726;-66
2023/08/01 00:34:32;;;;;;;6.03;2.80;;;20.60;99.90;;;;;;5053746;28;20202;-64
2023/08/01 00:36:59;;;;;;;5.40;3.03;;;20.60;99.90;;;;;;5054079;28;20210;-64
2023/08/01 00:39:26;;;;;;;5.40;2.90;;;20.70;99.90;;;;;;5054091;28;20209;-65
2023/08/01 00:41:52;;;;;;;5.32;2.72;;;20.70;99.90;;;;;;5053732;28;20705;-64
2023/08/01 00:44:19;;;;;;;5.40;3.05;;;20.60;99.90;;;;;;5054086;28;20209;-65
2023/08/01 00:46:46;;;;;;;6.97;2.97;;;20.60;99.90;;;;;;5053910;28;20232;-65
2023/08/01 00:49:13;;;;;;;5.82;3.17;;;20.50;99.90;;;;;;5054049;28;20696;-65
2023/08/01 00:51:41;;;;;;;5.03;3.55;;;20.60;99.90;;;;;;5053968;28;20229;-65
2023/08/01 00:54:08;;;;;;;5.35;4.00;;;20.50;99.90;;;;;;5053993;28;20252;-65
2023/08/01 00:56:35;;;;;;;4.78;3.25;;;20.50;99.90;;;;;;5054105;28;20214;-65
2023/08/01 00:59:02;;;;;;;4.95;2.95;;;20.50;99.90;;;;;;5054302;28;20335;-65
2023/08/01 01:01:29;;;;;;;5.93;2.90;;;20.40;99.90;;;;;;5061174;28;20202;-65
2023/08/01 01:03:56;;;;;;;4.70;3.20;;;20.30;99.90;;;;;;5062085;28;20212;-64
2023/08/01 01:06:29;;;;;;;4.55;3.30;;;20.30;99.90;;;;;;5061449;28;20206;-64
2023/08/01 01:08:57;;;;;;;5.95;2.97;;;20.30;99.90;;;;;;5061963;28;20331;-65
2023/08/01 01:11:23;;;;;;;4.75;3.22;;;20.30;99.90;;;;;;5056715;28;20228;-65
2023/08/01 01:13:52;;;;;;;3.90;2.90;;;20.20;99.90;;;;;;5053500;28;20213;-65
2023/08/01 01:16:19;;;;;;;4.10;2.78;;;20.20;99.90;;;;;;5052888;28;20240;-65
2023/08/01 01:18:46;;;;;;;4.60;3.00;;;20.10;99.90;;;;;;5053232;28;20292;-65
2023/08/01 01:21:14;;;;;;;5.57;3.30;;;20.10;99.90;;;;;;5053177;28;20208;-65
2023/08/01 01:23:42;;;;;;;4.45;3.05;;;20.10;99.90;;;;;;5053347;28;20205;-65
2023/08/01 01:26:10;;;;;;;6.55;3.30;;;20.10;99.90;;;;;;5053319;28;20209;-65
2023/08/01 01:28:38;;;;;;;4.55;3.00;;;20.20;99.90;;;;;;5053470;28;20213;-65
2023/08/01 01:31:05;;;;;;;4.93;2.95;;;20.10;99.90;;;;;;5052965;28;20543;-64
2023/08/01 01:33:31;;;;;;;4.55;2.97;;;20.10;99.90;;;;;;5052584;28;20233;-65
2023/08/01 01:35:58;;;;;;;5.45;2.90;;;20.10;99.90;;;;;;5052989;28;20205;-65
2023/08/01 01:38:26;;;;;;;5.13;2.88;;;20.10;99.90;;;;;;5052767;28;20536;-65
2023/08/01 01:40:53;;;;;;;4.90;3.00;;;20.20;99.90;;;;;;5053462;28;20201;-65
2023/08/01 01:43:19;;;;;;;4.15;2.83;;;20.20;99.90;;;;;;5052361;28;20716;-65
2023/08/01 01:45:46;;;;;;;5.72;3.20;;;20.20;99.90;;;;;;5052429;28;20523;-65
2023/08/01 01:48:13;;;;;;;4.32;3.05;;;20.20;99.90;;;;;;5052828;28;20206;-65
2023/08/01 01:50:39;;;;;;;6.53;2.80;;;20.10;99.90;;;;;;5052599;28;20208;-65
2023/08/01 01:53:06;;;;;;;7.18;3.40;;;20.10;99.90;;;;;;5052610;28;20229;-65
2023/08/01 01:55:35;;;;;;;5.38;2.90;;;20.20;99.90;;;;;;5052571;28;20235;-65
2023/08/01 01:58:02;;;;;;;7.40;3.20;;;20.20;99.90;;;;;;5052047;28;20233;-65
2023/08/01 02:00:28;;;;;;;5.95;3.00;;;20.20;99.90;;;;;;5052792;28;20214;-65
2023/08/01 02:02:55;;;;;;;5.95;3.00;;;20.20;99.90;;;;;;5052573;28;20638;-65
2023/08/01 02:05:22;;;;;;;5.97;3.22;;;20.20;99.90;;;;;;5052550;28;20201;-65
2023/08/01 02:07:49;;;;;;;5.57;3.20;;;20.20;99.90;;;;;;5052082;28;20209;-65
2023/08/01 02:10:15;;;;;;;3.80;2.88;;;20.20;99.90;;;;;;5052289;28;20209;-65
2023/08/01 02:12:43;;;;;;;5.85;3.03;;;20.20;99.90;;;;;;5052042;28;20312;-65
2023/08/01 02:15:10;;;;;;;4.68;2.95;;;20.30;99.90;;;;;;5052529;28;20201;-65
2023/08/01 02:17:37;;;;;;;6.63;3.00;;;20.20;99.90;;;;;;5052090;28;20228;-64
2023/08/01 02:20:04;;;;;;;3.90;2.50;;;20.30;99.90;;;;;;5052066;28;20205;-65
2023/08/01 02:22:31;;;;;;;5.82;3.22;;;20.30;99.90;;;;;;5052430;28;20230;-65
2023/08/01 02:24:58;;;;;;;5.40;3.25;;;20.20;99.90;;;;;;5051935;28;20201;-65
2023/08/01 02:27:25;;;;;;;4.75;2.90;;;20.20;99.90;;;;;;5051152;28;20210;-65
2023/08/01 02:29:53;;;;;;;4.15;3.13;;;20.20;99.90;;;;;;5051718;28;20689;-65
2023/08/01 02:32:19;;;;;;;5.25;3.75;;;20.20;99.90;;;;;;5051501;28;20739;-65
2023/08/01 02:34:46;;;;;;;9.43;6.97;;;20.20;99.90;;;;;;5052154;28;20209;-65
2023/08/01 02:37:13;;;;;;;5.43;3.67;;;20.30;99.90;;;;;;5052295;28;20212;-65
2023/08/01 02:39:39;;;;;;;8.38;4.65;;;20.30;99.90;;;;;;5051609;28;20277;-65
2023/08/01 02:42:07;;;;;;;5.05;3.35;;;20.30;99.90;;;;;;5052206;28;20221;-65
2023/08/01 02:44:33;;;;;;;7.45;4.57;;;20.30;99.90;;;;;;5051815;28;20214;-64
2023/08/01 02:47:01;;;;;;;5.25;3.75;;;20.30;99.90;;;;;;5051370;28;20202;-65
2023/08/01 02:49:28;;;;;;;6.07;3.22;;;20.30;99.90;;;;;;5051887;28;20201;-64
2023/08/01 02:51:55;;;;;;;5.68;3.83;;;20.30;99.90;;;;;;5051526;28;20229;-65
2023/08/01 02:54:21;;;;;;;8.55;4.88;;;20.30;99.90;;;;;;5051498;28;20201;-64
2023/08/01 02:56:48;;;;;;;6.95;3.47;;;20.30;99.90;;;;;;5051417;28;20209;-64
2023/08/01 02:59:15;;;;;;;3.95;2.97;;;20.20;99.90;;;;;;5052078;28;20218;-64
2023/08/01 03:01:42;;;;;;;5.63;4.00;;;20.30;99.90;;;;;;5051658;28;20304;-64
2023/08/01 03:04:11;;;;;;;7.38;4.15;;;20.30;99.90;;;;;;5051707;28;20219;-65
2023/08/01 03:06:38;;;;;;;8.00;5.80;;;20.30;99.90;;;;;;5051149;28;20205;-65
2023/08/01 03:09:07;;;;;;;5.22;4.07;;;20.20;99.90;;;;;;5051328;28;20689;-66
2023/08/01 03:11:34;;;;;;;6.25;3.80;;;20.20;99.90;;;;;;5051365;28;20238;-65
2023/08/01 03:14:01;;;;;;;5.13;3.15;;;20.20;99.90;;;;;;5051500;28;20727;-64
2023/08/01 03:16:28;;;;;;;7.47;5.32;;;20.20;99.90;;;;;;5050999;28;20209;-65
2023/08/01 03:18:54;;;;;;;5.95;4.28;;;20.10;99.90;;;;;;5051503;28;20592;-64
2023/08/01 03:21:22;;;;;;;7.75;4.38;;;20.10;99.90;;;;;;5051076;28;20206;-65
2023/08/01 03:23:49;;;;;;;7.53;4.38;;;20.10;99.90;;;;;;5051079;28;20688;-65
2023/08/01 03:26:18;;;;;;;6.78;4.40;;;20.20;99.90;;;;;;5050881;28;20236;-65
2023/08/01 03:28:44;;;;;;;6.72;4.63;;;20.20;99.90;;;;;;5051497;28;20205;-65
2023/08/01 03:31:11;;;;;;;5.95;3.40;;;20.20;99.90;;;;;;5051192;28;20216;-65
2023/08/01 03:33:38;;;;;;;4.50;3.20;;;20.20;99.90;;;;;;5050858;28;20275;-65
2023/08/01 03:36:05;;;;;;;5.57;3.55;;;20.20;99.90;;;;;;5050614;28;20201;-65
2023/08/01 03:38:33;;;;;;;4.15;3.22;;;20.20;99.90;;;;;;5051316;28;20206;-64
2023/08/01 03:41:00;;;;;;;5.47;3.70;;;20.70;99.90;;;;;;5055317;28;20205;-65
2023/08/01 03:43:26;;;;;;;5.60;4.15;;;20.30;99.90;;;;;;5055288;28;20248;-65
2023/08/01 03:45:53;;;;;;;5.82;3.13;;;20.30;99.90;;;;;;5054817;28;20692;-65
2023/08/01 03:48:20;;;;;;;4.90;3.08;;;20.30;99.90;;;;;;5055267;28;20213;-65
2023/08/01 03:50:47;;;;;;;5.47;4.18;;;20.20;99.90;;;;;;5055128;28;20692;-65
2023/08/01 03:53:13;;;;;;;4.68;3.28;;;20.20;99.90;;;;;;5054879;28;20255;-65
2023/08/01 03:55:42;;;;;;;6.45;3.70;;;20.20;99.90;;;;;;5054966;28;20221;-65
2023/08/01 03:58:09;;;;;;;4.63;2.80;;;20.10;99.90;;;;;;5055041;28;20212;-65
2023/08/01 04:00:35;;;;;;;6.40;3.65;;;20.10;99.90;;;;;;5054704;28;20213;-65
2023/08/01 04:03:02;;;;;;;7.65;3.72;;;20.10;99.90;;;;;;5054509;28;20258;-65
2023/08/01 04:05:29;;;;;;;7.57;3.40;;;20.20;99.90;;;;;;5054740;28;20209;-65
2023/08/01 04:07:56;;;;;;;4.25;2.78;;;20.10;99.90;;;;;;5054204;28;20209;-65
2023/08/01 04:10:22;;;;;;;6.35;3.15;;;20.20;99.90;;;;;;5054839;28;20210;-66
2023/08/01 04:12:51;;;;;;;6.03;3.15;;;20.30;99.90;;;;;;5054420;28;20229;-65
2023/08/01 04:15:17;;;;;;;6.32;2.55;;;20.30;99.90;;;;;;5054326;28;20209;-65
2023/08/01 04:17:44;;;;;;;5.15;2.70;;;20.30;99.90;;;;;;5053941;28;20563;-64
2023/08/01 04:20:12;;;;;;;4.53;2.92;;;20.30;99.90;;;;;;5054359;28;20654;-65
2023/08/01 04:22:39;;;;;;;5.93;2.80;;;20.30;99.90;;;;;;5054319;28;20309;-65
2023/08/01 04:25:06;;;;;;;4.03;2.60;;;20.20;99.90;;;;;;5054357;28;20233;-65
2023/08/01 04:27:33;;;;;;;3.25;2.50;;;20.20;99.90;;;;;;5054038;28;20202;-65
2023/08/01 04:30:01;;;;;;;4.32;2.70;;;20.30;99.90;;;;;;5053885;28;20201;-64
2023/08/01 04:32:28;;;;;;;4.85;2.95;;;20.30;99.90;;;;;;5054204;28;20233;-65
2023/08/01 04:34:55;;;;;;;5.15;2.67;;;20.30;99.90;;;;;;5054254;28;20201;-65
2023/08/01 04:37:23;;;;;;;3.85;2.50;;;20.20;99.90;;;;;;5053736;28;20232;-64
2023/08/01 04:39:49;;;;;;;4.60;2.42;;;20.20;99.90;;;;;;5054146;28;20206;-64
2023/08/01 04:42:16;;;;;;;5.20;2.65;;;20.10;99.90;;;;;;5053780;28;20225;-64
2023/08/01 04:44:43;;;;;;;3.85;2.58;;;20.20;99.90;;;;;;5053641;28;20206;-65
2023/08/01 04:47:11;;;;;;;5.15;2.55;;;20.30;99.90;;;;;;5053728;28;20212;-65
2023/08/01 04:49:38;;;;;;;4.70;2.90;;;20.30;99.90;;;;;;5053528;28;20630;-65
2023/08/01 04:52:06;;;;;;;4.13;2.63;;;20.30;99.90;;;;;;5052751;28;20260;-66
2023/08/01 04:54:32;;;;;;;4.30;2.53;;;20.40;99.90;;;;;;5053491;28;20220;-64
2023/08/01 04:56:59;;;;;;;4.47;2.70;;;20.40;99.90;;;;;;5053110;28;20218;-64
2023/08/01 04:59:26;;;;;;;4.95;2.97;;;20.50;99.90;;;;;;5053382;28;20216;-66
2023/08/01 05:01:53;;;;;;;3.97;2.60;;;20.60;99.90;;;;;;5053262;28;20221;-66
2023/08/01 05:04:21;;;;;;;3.28;2.42;;;20.70;99.90;;;;;;5053263;28;20589;-66
2023/08/01 05:06:47;;;;;;;5.32;2.58;;;20.60;99.90;;;;;;5053091;28;20217;-65
2023/08/01 05:09:14;;;;;;;5.95;2.53;;;20.70;99.90;;;;;;5053399;28;20212;-65
2023/08/01 05:11:41;;;;;;;3.17;2.65;;;20.70;99.90;;;;;;5053019;28;20236;-65
2023/08/01 05:14:08;;;;;;;5.00;3.00;;;20.70;99.90;;;;;;5053323;28;20256;-65
2023/08/01 05:16:34;;;;;;;5.60;3.00;;;20.70;99.90;;;;;;5052832;28;20681;-65
2023/08/01 05:19:01;;;;;;;4.32;2.40;;;20.60;99.90;;;;;;5053274;28;20213;-65
2023/08/01 05:21:29;;;;;;;4.70;2.88;;;20.60;99.90;;;;;;5053130;28;20214;-64
2023/08/01 05:23:56;;;;;;;4.25;2.75;;;20.60;99.90;;;;;;5053120;28;20202;-65
2023/08/01 05:26:22;;;;;;;3.63;2.70;;;20.60;99.90;;;;;;5052826;28;20201;-67
2023/08/01 05:28:49;;;;;;;7.20;3.22;;;20.60;99.90;;;;;;5053331;28;20253;-65
2023/08/01 05:31:16;;;;;;;4.60;3.00;;;20.60;99.90;;;;;;5053649;28;20246;-65
2023/08/01 05:33:43;;;;;;;3.67;2.72;;;20.60;99.90;;;;;;5053442;28;20236;-65
2023/08/01 05:36:09;;;;;;;4.60;2.75;;;20.60;99.90;;;;;;5052795;28;20205;-65
2023/08/01 05:38:37;;;;;;;4.18;2.90;;;20.70;99.90;;;;;;5052796;28;20209;-65
2023/08/01 05:41:04;;;;;;;4.38;2.58;;;20.80;99.90;;;;;;5052760;28;20209;-64
2023/08/01 05:43:31;;;;;;;5.68;2.50;;;20.80;99.90;;;;;;5052815;28;20226;-65
2023/08/01 05:45:57;;;;;;;4.72;2.85;;;20.80;99.90;;;;;;5052681;28;20406;-64
2023/08/01 05:48:24;;;;;;;4.60;3.00;;;20.80;99.90;;;;;;5052890;28;20214;-64
2023/08/01 05:50:53;;;;;;;4.20;2.90;;;20.80;99.90;;;;;;5052786;28;20209;-64
2023/08/01 05:53:19;;;;;;;4.75;2.83;;;20.80;99.90;;;;;;5052713;28;20715;-64
2023/08/01 05:55:47;;;;;;;6.07;3.20;;;20.80;99.90;;;;;;5052350;28;20213;-64
2023/08/01 05:58:14;;;;;;;5.80;2.83;;;20.90;99.90;;;;;;5052790;28;20209;-64
2023/08/01 06:00:41;;;;;;;6.45;3.03;;;20.90;99.90;;;;;;5052612;28;20206;-64
2023/08/01 06:03:08;;;;;;;6.03;2.97;;;21.00;99.90;;;;;;5051501;28;20241;-64
2023/08/01 06:05:37;;;;;;;5.57;2.90;;;21.00;99.90;;;;;;5052384;28;20262;-63
2023/08/01 06:08:04;;;;;;;5.07;2.47;;;21.00;99.90;;;;;;5052288;28;20209;-64
2023/08/01 06:10:31;;;;;;;3.97;2.83;;;21.00;99.90;;;;;;5052645;28;20217;-64
2023/08/01 06:12:59;;;;;;;7.63;2.72;;;21.00;99.90;;;;;;5052761;28;20261;-65
2023/08/01 06:15:26;;;;;;;3.50;2.72;;;21.00;99.90;;;;;;5052733;28;20206;-65
2023/08/01 06:17:52;;;;;;;5.15;2.70;;;21.10;99.90;;;;;;5052323;28;20209;-65
2023/08/01 06:20:19;;;;;;;5.18;2.90;;;21.10;99.90;;;;;;5052097;28;20213;-61
2023/08/01 06:22:46;;;;;;;6.20;3.10;;;21.20;99.90;;;;;;5051948;28;20712;-61
2023/08/01 06:25:13;;;;;;;4.90;2.95;;;21.30;99.90;;;;;;5052151;28;20312;-61
2023/08/01 06:27:39;;;;;;;5.00;2.75;;;21.20;99.90;;;;;;5051840;28;20585;-61
2023/08/01 06:30:09;;;;;;;4.50;2.40;;;21.20;99.90;;;;;;5052495;28;20201;-60
2023/08/01 06:32:36;;;;;;;4.15;2.40;;;21.20;99.90;;;;;;5075528;22;20226;-56
2023/08/01 06:35:02;;;;;;;4.65;2.58;;;21.10;99.90;;;;;;5051705;28;20252;-57
2023/08/01 06:37:29;;;;;;;3.72;2.58;;;21.00;99.90;;;;;;5051760;28;20209;-57
2023/08/01 06:39:56;;;;;;;12.68;4.10;;;21.00;99.90;;;;;;5051862;28;20588;-61
2023/08/01 06:42:23;;;;;;;6.65;3.03;;;21.10;99.90;;;;;;5051871;28;20226;-61
2023/08/01 06:44:49;;;;;;;5.50;3.47;;;21.00;99.90;;;;;;5052281;28;20210;-61
2023/08/01 06:47:17;;;;;;;7.15;3.60;;;20.80;99.90;;;;;;5051640;28;20206;-60
2023/08/01 06:49:44;;;;;;;6.88;3.22;;;20.50;99.90;;;;;;5052108;28;20206;-61
2023/08/01 06:52:11;;;;;;;5.82;3.28;;;20.30;99.90;;;;;;5051966;28;20225;-61
2023/08/01 06:54:38;;;;;;;6.60;3.53;;;20.20;99.90;;;;;;5051975;28;20661;-63
2023/08/01 06:57:05;;;;;;;3.97;3.28;;;20.10;99.90;;;;;;5051617;28;20232;-60
2023/08/01 06:59:32;;;;;;;6.32;3.60;;;20.10;99.90;;;;;;5051791;28;20208;-61
2023/08/01 07:01:58;;;;;;;6.32;3.35;;;20.00;99.90;;;;;;5051851;28;20582;-61
2023/08/01 07:04:26;;;;;;;7.55;3.72;;;20.00;99.90;;;;;;5051681;28;20553;-61
2023/08/01 07:06:53;;;;;;;6.40;3.50;;;20.00;99.90;;;;;;5051327;28;20616;-61
2023/08/01 07:09:20;;;;;;;6.57;3.40;;;19.90;99.90;;;;;;5051790;28;20563;-60
2023/08/01 07:11:46;;;;;;;7.13;3.58;;;19.90;99.90;;;;;;5051495;28;20212;-60
2023/08/01 07:14:13;;;;;;;6.72;3.65;;;19.90;99.90;;;;;;5050893;28;20229;-60
2023/08/01 07:16:40;;;;;;;6.38;5.10;;;19.90;99.90;;;;;;5051085;28;20552;-61
2023/08/01 07:19:06;;;;;;;6.70;3.88;;;19.90;99.90;;;;;;5051832;28;20216;-60
2023/08/01 07:21:34;;;;;;;4.00;3.42;;;20.00;99.90;;;;;;5051507;28;20240;-61
2023/08/01 07:24:01;;;;;;;5.93;4.03;;;20.10;99.90;;;;;;5051448;28;20198;-61
2023/08/01 07:26:29;;;;;;;5.80;3.70;;;20.20;99.90;;;;;;5051155;28;20722;-61
2023/08/01 07:28:56;;;;;;;9.05;3.80;;;20.30;99.90;;;;;;5051411;28;20611;-61
2023/08/01 07:31:23;;;;;;;6.90;3.90;;;20.30;99.90;;;;;;5051519;28;20229;-61
2023/08/01 07:33:49;;;;;;;8.55;4.47;;;20.40;99.90;;;;;;5051118;28;20229;-61
2023/08/01 07:36:16;;;;;;;6.93;4.35;;;20.30;99.90;;;;;;5051283;28;20220;-61
2023/08/01 07:38:44;;;;;;;5.88;3.92;;;20.30;99.90;;;;;;5051211;28;20685;-61
2023/08/01 07:41:11;;;;;;;7.03;4.80;;;20.20;99.90;;;;;;5051452;28;20209;-60
2023/08/01 07:43:37;;;;;;;10.88;7.88;;;20.20;99.90;;;;;;5051430;28;20221;-60
2023/08/01 07:46:04;;;;;;;9.10;4.60;;;20.10;99.90;;;;;;5050878;28;20206;-61
2023/08/01 07:48:31;;;;;;;6.07;4.30;;;20.00;99.90;;;;;;5051401;28;20206;-61
2023/08/01 07:50:57;;;;;;;9.70;5.03;;;19.90;99.90;;;;;;5051044;28;20595;-60
2023/08/01 07:53:24;;;;;;;5.93;4.45;;;19.80;99.90;;;;;;5051055;28;20225;-61
2023/08/01 07:55:52;;;;;;;6.18;4.55;;;19.60;99.90;;;;;;5050823;28;20205;-61
2023/08/01 07:58:19;;;;;;;5.78;4.22;;;19.60;99.90;;;;;;5051208;28;20218;-61
2023/08/01 08:00:46;;;;;;;6.53;4.50;;;19.40;99.90;;;;;;5051075;28;20213;-60
2023/08/01 08:03:12;;;;;;;7.03;4.15;;;19.30;99.90;;;;;;5050966;28;20237;-60
2023/08/01 08:05:40;;;;;;;6.57;3.67;;;19.30;99.90;;;;;;5051222;28;20209;-60
2023/08/01 08:08:07;;;;;;;5.45;3.60;;;19.30;99.90;;;;;;5050975;28;20312;-60
2023/08/01 08:10:34;;;;;;;6.35;3.65;;;19.20;99.90;;;;;;5050961;28;20650;-61
2023/08/01 08:13:02;;;;;;;6.07;3.58;;;19.20;99.90;;;;;;5051133;28;20228;-61
2023/08/01 08:15:33;;;;;;;5.60;3.40;;;19.20;99.90;;;;;;5051070;28;20205;-60
2023/08/01 08:18:00;;;;;;;4.22;3.00;;;19.30;99.90;;;;;;5050650;28;20691;-60
2023/08/01 08:20:26;;;;;;;3.40;2.67;;;19.40;99.90;;;;;;5050889;28;20288;-61
2023/08/01 08:22:53;;;;;;;3.42;2.90;;;19.50;99.90;;;;;;5050669;28;20240;-59
2023/08/01 08:25:20;;;;;;;4.68;2.95;;;19.60;99.90;;;;;;5050704;28;20213;-59
2023/08/01 08:27:48;;;;;;;4.13;2.63;;;19.60;99.90;;;;;;5053568;28;20209;-63
2023/08/01 08:30:16;;;;;;;5.95;2.55;;;19.60;99.90;;;;;;5054550;28;20255;-62
2023/08/01 08:32:43;;;;;;;3.70;2.22;;;19.70;99.90;;;;;;5054087;28;20242;-63
2023/08/01 08:35:11;;;;;;;4.28;2.40;;;19.90;99.90;;;;;;5054513;28;20213;-63
2023/08/01 08:37:37;;;;;;;3.63;2.10;;;20.00;99.90;;;;;;5053817;28;20619;-62
2023/08/01 08:40:05;;;;;;;3.55;2.33;;;20.00;99.90;;;;;;5053889;28;20300;-63
2023/08/01 08:42:34;;;;;;;3.35;2.17;;;20.10;99.90;;;;;;5054257;28;20237;-63
2023/08/01 08:45:02;;;;;;;3.67;2.65;;;20.20;99.90;;;;;;5054299;28;20208;-62
2023/08/01 08:47:33;;;;;;;4.15;2.10;;;20.30;99.90;;;;;;5053981;28;20212;-63
2023/08/01 08:50:00;;;;;;;2.13;1.70;;;20.50;99.90;;;;;;5054029;28;20209;-62
2023/08/01 08:52:27;;;;;;;2.90;2.17;;;20.60;99.90;;;;;;5053895;28;20225;-62
2023/08/01 08:54:55;;;;;;;3.45;2.17;;;20.70;99.90;;;;;;5053793;28;20318;-63
2023/08/01 08:57:23;;;;;;;2.03;1.63;;;21.00;99.90;;;;;;5053568;28;20700;-63
2023/08/01 08:59:50;;;;;;;3.75;2.20;;;21.20;99.90;;;;;;5053865;28;20284;-63
2023/08/01 09:02:17;;;;;;;3.40;2.15;;;21.50;99.90;;;;;;5053713;28;20232;-62
2023/08/01 09:04:45;;;;;;;3.85;2.13;;;21.90;99.90;;;;;;5053574;28;20198;-63
2023/08/01 09:07:16;;;;;;;3.00;1.90;;;22.10;99.90;;;;;;5053385;28;20625;-63
2023/08/01 09:09:42;;;;;;;2.63;1.95;;;22.20;99.90;;;;;;5053553;28;20216;-63
2023/08/01 09:12:10;;;;;;;2.70;2.05;;;22.20;99.90;;;;;;5053499;28;20320;-62
2023/08/01 09:14:37;;;;;;;2.75;2.25;;;22.00;99.90;;;;;;5053516;28;20697;-63
2023/08/01 09:17:08;;;;;;;2.67;1.73;;;21.90;99.90;;;;;;5053315;28;20209;-63
2023/08/01 09:19:35;;;;;;;2.30;2.00;;;21.90;99.90;;;;;;5053205;28;20210;-63
2023/08/01 09:22:10;;;;;;;2.72;2.05;;;21.60;99.90;;;;;;5053215;28;20731;-63
2023/08/01 09:24:37;;;;;;;3.22;2.10;;;21.50;99.90;;;;;;5053536;28;20616;-63
2023/08/01 09:27:05;;;;;;;3.72;2.03;;;21.50;99.90;;;;;;5053132;28;20288;-63
2023/08/01 09:29:32;;;;;;;3.95;2.35;;;21.50;99.90;;;;;;5053262;28;20214;-62
2023/08/01 09:31:59;;;;;;;4.25;1.98;;;21.40;99.90;;;;;;5053303;28;20229;-63
2023/08/01 09:34:27;;;;;;;3.83;2.85;;;21.00;99.90;;;;;;5053426;28;20612;-63
2023/08/01 09:36:59;;;;;;;4.25;2.38;;;20.70;99.90;;;;;;5052865;28;20216;-63
2023/08/01 09:39:27;;;;;;;3.25;1.95;;;20.60;99.90;;;;;;5053185;28;20317;-62
2023/08/01 09:41:57;;;;;;;2.75;2.08;;;20.60;99.90;;;;;;5052783;28;20229;-63
2023/08/01 09:44:25;;;;;;;3.08;1.90;;;20.90;99.90;;;;;;5053099;28;20637;-63
2023/08/01 09:47:00;;;;;;;3.00;2.00;;;21.40;99.90;;;;;;5052428;28;20684;-63
2023/08/01 09:49:28;;;;;;;3.72;2.15;;;21.80;99.90;;;;;;5053102;28;20204;-63
2023/08/01 09:51:55;;;;;;;3.00;1.90;;;22.00;99.90;;;;;;5052485;28;20236;-62
2023/08/01 09:54:22;;;;;;;2.47;2.08;;;21.90;99.90;;;;;;5052679;28;20572;-63
2023/08/01 09:56:52;;;;;;;2.38;1.60;;;21.80;99.90;;;;;;5052385;28;20676;-63
2023/08/01 09:59:20;;;;;;;4.38;2.10;;;21.80;99.90;;;;;;5052325;28;20256;-63
2023/08/01 10:01:50;;;;;;;2.58;1.67;;;21.90;99.90;;;;;;5052314;28;20217;-63
2023/08/01 10:04:19;;;;;;;2.47;1.80;;;21.90;99.90;;;;;;5052495;28;20251;-60
2023/08/01 10:06:49;;;;;;;2.85;1.98;;;22.10;99.90;;;;;;5052301;28;20210;-61
2023/08/01 10:09:17;;;;;;;3.35;2.20;;;22.20;99.90;;;;;;5052396;28;20217;-63
2023/08/01 10:11:44;;;;;;;1.73;1.42;;;22.40;99.90;;;;;;5051890;28;20677;-62
2023/08/01 10:14:13;;;;;;;2.38;1.52;;;22.60;99.90;;;;;;5051847;28;20592;-62
2023/08/01 10:16:41;;;;;;;4.30;1.98;;;22.60;99.90;;;;;;5051856;28;20209;-62
2023/08/01 10:19:11;;;;;;;2.53;1.50;;;22.60;99.90;;;;;;5052086;28;20205;-62
2023/08/01 10:21:39;;;;;;;3.35;1.65;;;22.70;99.90;;;;;;5052052;28;20210;-62
2023/08/01 10:24:07;;;;;;;3.78;1.90;;;22.90;99.90;;;;;;5052093;28;20205;-62
2023/08/01 10:26:34;;;;;;;2.95;1.88;;;23.00;99.90;;;;;;5051665;28;20205;-61
2023/08/01 10:29:02;;;;;;;3.53;1.95;;;23.10;99.90;;;;;;5051974;28;20673;-63
2023/08/01 10:31:30;;;;;;;5.00;1.90;;;23.00;99.90;;;;;;5052152;28;20256;-63
2023/08/01 10:34:05;;;;;;;1.60;1.20;;;23.00;99.90;;;;;;5051675;28;20280;-62
2023/08/01 10:36:32;;;;;;;2.35;1.20;;;23.00;99.90;;;;;;5051348;28;20209;-62
2023/08/01 10:39:01;;;;;;;2.08;1.00;;;22.90;99.90;;;;;;5051679;28;20212;-63
2023/08/01 10:41:29;;;;;;;2.38;1.40;;;22.80;99.90;;;;;;5052079;28;20206;-62
2023/08/01 10:44:06;;;;;;;3.60;2.85;;;22.90;99.90;;;;;;5051770;28;20240;-63
2023/08/01 10:46:48;;;;;;;0.52;0.47;;;23.00;99.90;;;;;;5051612;28;20241;-62
2023/08/01 10:49:15;;;;;;;0.65;0.50;;;23.20;99.90;;;;;;5051355;28;20248;-63
2023/08/01 10:51:42;;;;;;;0.77;0.50;;;23.20;99.90;;;;;;5051980;28;20233;-66
2023/08/01 10:54:20;;;;;;;0.50;0.47;;;23.10;99.90;;;;;;5051959;28;20225;-64
2023/08/01 10:56:47;;;;;;;2.92;1.02;;;22.90;99.90;;;;;;5051993;28;20252;-64
2023/08/01 10:59:14;;;;;;;1.77;1.33;;;22.60;99.90;;;;;;5051621;28;20208;-62
2023/08/01 11:01:48;;;;;;;5.25;1.85;;;22.50;99.90;;;;;;5051771;28;20213;-63
2023/08/01 11:04:15;;;;;;;1.27;0.73;;;22.50;99.90;;;;;;5051997;28;20585;-63
2023/08/01 11:06:49;;;;;;;0.95;0.52;;;22.40;99.90;;;;;;5051537;28;20236;-63
2023/08/01 11:09:18;;;;;;;0.70;0.70;;;22.30;99.90;;;;;;5051928;28;20595;-63
2023/08/01 11:11:45;;;;;;;2.47;1.55;;;22.30;99.90;;;;;;5051938;28;20233;-63
2023/08/01 11:14:13;;;;;;;1.80;0.88;;;22.40;99.90;;;;;;5051666;28;20230;-63
2023/08/01 11:16:40;;;;;;;1.40;0.90;;;22.40;99.90;;;;;;5052211;28;20234;-60
2023/08/01 11:19:19;;;;;;;2.25;0.50;;;22.50;99.90;;;;;;5051924;28;20213;-64
2023/08/01 11:21:46;;;;;;;0.80;0.45;;;22.70;99.90;;;;;;5051925;28;20205;-62
2023/08/01 11:24:13;;;;;;;3.63;0.52;;;22.80;99.90;;;;;;5051432;28;20673;-66
2023/08/01 11:26:42;;;;;;;0.60;0.43;;;23.00;99.90;;;;;;5051046;28;20209;-65
2023/08/01 11:29:09;;;;;;;2.05;0.70;;;23.30;99.90;;;;;;5051637;28;20263;-63
2023/08/01 11:31:36;;;;;;;0.55;0.50;;;23.60;99.90;;;;;;5051544;28;20213;-63
2023/08/01 11:34:03;;;;;;;1.08;0.70;;;24.00;99.90;;;;;;5051456;28;20229;-63
2023/08/01 11:36:32;;;;;;;5.65;1.90;;;24.20;99.90;;;;;;5051252;28;20202;-61
2023/08/01 11:39:01;;;;;;;1.35;1.05;;;24.30;99.90;;;;;;5049904;28;20209;-61
2023/08/01 11:41:28;;;;;;;2.40;1.02;;;24.40;99.90;;;;;;5051226;28;20563;-67
2023/08/01 11:43:55;;;;;;;2.85;0.90;;;24.40;99.90;;;;;;5051379;28;20490;-67
2023/08/01 11:46:31;;;;;;;1.00;0.80;;;24.20;99.90;;;;;;5051043;28;20237;-68
2023/08/01 11:48:57;;;;;;;1.52;0.93;;;24.10;99.90;;;;;;5050548;28;20677;-64
2023/08/01 11:51:24;;;;;;;3.22;1.13;;;23.90;99.90;;;;;;5051318;28;20206;-69
2023/08/01 11:54:01;;;;;;;1.90;1.00;;;23.70;99.90;;;;;;5051650;28;20221;-63
2023/08/01 11:56:27;;;;;;;1.40;0.88;;;23.60;99.90;;;;;;5050839;28;20213;-67
2023/08/01 11:58:54;;;;;;;1.77;0.98;;;23.60;99.90;;;;;;5050804;28;20455;-62
2023/08/01 12:01:21;;;;;;;1.15;0.80;;;23.90;99.90;;;;;;5054330;28;20209;-65
2023/08/01 12:03:49;;;;;;;2.08;1.27;;;23.80;99.90;;;;;;5055314;28;20229;-66
2023/08/01 12:06:16;;;;;;;2.72;1.00;;;23.90;99.90;;;;;;5054579;28;20209;-66
2023/08/01 12:08:44;;;;;;;1.33;0.90;;;24.00;99.90;;;;;;5055112;28;20210;-62
2023/08/01 12:11:23;;;;;;;1.70;0.90;;;24.10;99.90;;;;;;5054957;28;20201;-66
2023/08/01 12:14:02;;;;;;;4.70;1.08;;;24.10;99.90;;;;;;5055080;28;20756;-65
2023/08/01 12:16:29;;;;;;;1.27;1.00;;;24.00;99.90;;;;;;5055184;28;20278;-64
2023/08/01 12:18:56;;;;;;;3.50;1.17;;;24.00;99.90;;;;;;5054758;28;20228;-61
2023/08/01 12:21:22;;;;;;;1.90;1.00;;;24.30;99.90;;;;;;5054617;28;20296;-65
2023/08/01 12:23:49;;;;;;;1.30;0.90;;;24.40;99.90;;;;;;5054665;28;20665;-65
2023/08/01 12:26:16;;;;;;;4.93;1.15;;;24.70;99.90;;;;;;5054591;28;20209;-66
2023/08/01 12:28:44;;;;;;;3.00;1.02;;;24.70;99.90;;;;;;5054624;28;20212;-67
2023/08/01 12:31:11;;;;;;;3.10;1.10;;;24.60;99.90;;;;;;5054701;28;20212;-60
2023/08/01 12:33:38;;;;;;;1.73;1.10;;;24.60;99.90;;;;;;5054599;28;20729;-59
2023/08/01 12:36:05;;;;;;;1.20;1.08;;;24.60;99.90;;;;;;5054307;28;20233;-64
2023/08/01 12:38:32;;;;;;;1.00;0.90;;;24.60;99.90;;;;;;5054355;28;20201;-59
2023/08/01 12:40:58;;;;;;;2.30;1.20;;;24.70;99.90;;;;;;5054165;28;20205;-59
2023/08/01 12:43:25;;;;;;;2.47;1.25;;;24.90;99.90;;;;;;5053963;28;20287;-58
2023/08/01 12:45:55;;;;;;;1.70;1.08;;;25.00;99.90;;;;;;5053606;28;20669;-59
2023/08/01 12:48:22;;;;;;;2.45;1.35;;;25.20;99.90;;;;;;5054109;28;20267;-59